createdAt,value
2017-05-17T00:00:13.145Z,17.55
2017-05-17T00:01:25.568Z,17.57
2017-05-17T00:02:38.487Z,17.6
2017-05-17T00:03:51.404Z,17.63
2017-05-17T00:05:04.530Z,17.6
2017-05-17T00:06:16.960Z,17.58
2017-05-17T00:07:29.386Z,17.6
2017-05-17T00:08:42.308Z,17.6
2017-05-17T00:09:54.938Z,17.49
2017-05-17T00:11:07.853Z,17.46
2017-05-17T00:12:20.283Z,17.51
2017-05-17T00:13:33.201Z,17.46
2017-05-17T00:14:46.124Z,17.51
2017-05-17T00:15:59.050Z,17.47
2017-05-17T00:17:11.484Z,17.51
2017-05-17T00:18:23.967Z,17.47
2017-05-17T00:19:36.885Z,17.49
2017-05-17T00:20:50.111Z,17.49
2017-05-17T00:22:03.033Z,17.47
2017-05-17T00:23:15.952Z,17.42
2017-05-17T00:24:28.870Z,17.4
2017-05-17T00:25:41.298Z,17.4
2017-05-17T00:26:54.218Z,17.42
2017-05-17T00:28:07.134Z,17.49
2017-05-17T00:29:19.076Z,17.4
2017-05-17T00:30:31.990Z,17.4
2017-05-17T00:31:44.904Z,17.49
2017-05-17T00:32:56.840Z,17.43
2017-05-17T00:34:09.759Z,17.45
2017-05-17T00:35:22.727Z,17.45
2017-05-17T00:36:35.646Z,17.46
2017-05-17T00:37:48.564Z,17.46
2017-05-17T00:39:01.481Z,17.51
2017-05-17T00:40:14.402Z,17.43
2017-05-17T00:41:27.371Z,17.47
2017-05-17T00:42:54.339Z,17.39
2017-05-17T00:44:07.257Z,17.39
2017-05-17T00:45:20.177Z,17.32
2017-05-17T00:46:33.096Z,17.36
2017-05-17T00:47:46.219Z,17.4
2017-05-17T00:48:59.138Z,17.4
2017-05-17T00:50:12.056Z,17.4
2017-05-17T00:51:24.976Z,17.39
2017-05-17T00:52:37.891Z,17.38
2017-05-17T00:53:51.009Z,17.32
2017-05-17T00:55:03.935Z,17.28
2017-05-17T00:56:16.853Z,17.27
2017-05-17T00:57:29.280Z,17.32
2017-05-17T00:58:42.399Z,17.35
2017-05-17T00:59:55.320Z,17.33
2017-05-17T01:01:08.238Z,17.39
2017-05-17T01:02:20.671Z,17.3
2017-05-17T01:03:33.587Z,17.3
2017-05-17T01:04:46.501Z,17.33
2017-05-17T01:05:59.417Z,17.36
2017-05-17T01:07:12.342Z,17.4
2017-05-17T01:08:24.767Z,17.33
2017-05-17T01:09:37.402Z,17.36
2017-05-17T01:10:50.320Z,17.35
2017-05-17T01:12:03.269Z,17.3
2017-05-17T01:13:15.696Z,17.32
2017-05-17T01:14:28.121Z,17.36
2017-05-17T01:15:41.038Z,17.32
2017-05-17T01:16:54.017Z,17.32
2017-05-17T01:18:06.983Z,17.3
2017-05-17T01:19:19.907Z,17.21
2017-05-17T01:20:33.030Z,17.28
2017-05-17T01:21:45.947Z,17.17
2017-05-17T01:22:58.919Z,17.21
2017-05-17T01:24:11.840Z,17.21
2017-05-17T01:25:24.759Z,17.21
2017-05-17T01:26:37.671Z,17.36
2017-05-17T01:27:50.619Z,17.33
2017-05-17T01:29:03.547Z,17.25
2017-05-17T01:30:16.476Z,17.21
2017-05-17T01:31:29.404Z,17.3
2017-05-17T01:32:41.842Z,17.27
2017-05-17T01:33:54.759Z,17.2
2017-05-17T01:35:07.673Z,17.28
2017-05-17T01:36:20.588Z,17.3
2017-05-17T01:37:33.506Z,17.3
2017-05-17T01:38:46.421Z,17.12
2017-05-17T01:39:58.856Z,17.18
2017-05-17T01:41:11.828Z,17.17
2017-05-17T01:42:24.749Z,17.18
2017-05-17T01:43:37.679Z,17.2
2017-05-17T01:44:50.594Z,17.15
2017-05-17T01:46:03.506Z,17.1
2017-05-17T01:47:16.429Z,17.12
2017-05-17T01:48:29.551Z,17.06
2017-05-17T01:49:41.981Z,17.06
2017-05-17T01:50:54.899Z,17
2017-05-17T01:52:07.815Z,17.03
2017-05-17T01:53:20.244Z,17.12
2017-05-17T01:54:32.692Z,17.03
2017-05-17T01:55:45.623Z,17
2017-05-17T01:56:58.540Z,17.06
2017-05-17T01:58:11.458Z,17.06
2017-05-17T01:59:24.186Z,17.02
2017-05-17T02:00:37.105Z,17.06
2017-05-17T02:01:50.020Z,16.96
2017-05-17T02:03:02.935Z,17.06
2017-05-17T02:04:15.856Z,17.07
2017-05-17T02:05:28.774Z,17.15
2017-05-17T02:06:41.691Z,17.09
2017-05-17T02:07:54.126Z,17.09
2017-05-17T02:09:07.047Z,17.1
2017-05-17T02:10:19.965Z,17.05
2017-05-17T02:11:32.879Z,17.03
2017-05-17T02:12:45.861Z,16.98
2017-05-17T02:13:58.931Z,16.96
2017-05-17T02:15:11.981Z,16.88
2017-05-17T02:16:25.029Z,16.9
2017-05-17T02:17:38.074Z,16.85
2017-05-17T02:18:51.118Z,16.85
2017-05-17T02:20:04.174Z,16.88
2017-05-17T02:21:17.515Z,16.96
2017-05-17T02:22:30.058Z,16.96
2017-05-17T02:23:43.105Z,16.96
2017-05-17T02:24:56.154Z,16.98
2017-05-17T02:26:09.404Z,17.02
2017-05-17T02:27:21.947Z,17
2017-05-17T02:28:35.037Z,17
2017-05-17T02:29:48.078Z,17.02
2017-05-17T02:31:01.136Z,17.1
2017-05-17T02:32:14.185Z,17.02
2017-05-17T02:33:26.731Z,17.02
2017-05-17T02:34:39.770Z,16.99
2017-05-17T02:35:52.809Z,16.99
2017-05-17T02:37:05.850Z,17
2017-05-17T02:38:18.897Z,16.92
2017-05-17T02:39:31.946Z,16.95
2017-05-17T02:40:44.993Z,17.03
2017-05-17T02:41:58.032Z,17.02
2017-05-17T02:43:11.073Z,16.99
2017-05-17T02:44:24.115Z,17.14
2017-05-17T02:45:37.096Z,17.07
2017-05-17T02:46:49.994Z,16.98
2017-05-17T02:48:02.895Z,17
2017-05-17T02:49:15.815Z,16.92
2017-05-17T02:50:28.711Z,16.98
2017-05-17T02:51:41.610Z,17.02
2017-05-17T02:52:54.036Z,16.98
2017-05-17T02:54:07.285Z,16.95
2017-05-17T02:55:20.193Z,16.96
2017-05-17T02:56:33.101Z,16.88
2017-05-17T02:57:45.999Z,16.85
2017-05-17T02:58:59.106Z,16.95
2017-05-17T03:00:12.014Z,16.85
2017-05-17T03:01:24.442Z,16.92
2017-05-17T03:02:37.363Z,16.98
2017-05-17T03:03:50.284Z,16.98
2017-05-17T03:05:03.406Z,16.99
2017-05-17T03:06:16.326Z,16.96
2017-05-17T03:07:28.754Z,16.91
2017-05-17T03:08:41.185Z,16.87
2017-05-17T03:09:54.304Z,16.96
2017-05-17T03:11:07.221Z,16.88
2017-05-17T03:12:20.141Z,16.9
2017-05-17T03:13:33.060Z,16.9
2017-05-17T03:14:45.986Z,16.85
2017-05-17T03:15:58.900Z,16.8
2017-05-17T03:17:10.881Z,16.8
2017-05-17T03:18:23.797Z,16.75
2017-05-17T03:19:36.237Z,16.77
2017-05-17T03:20:49.153Z,16.77
2017-05-17T03:22:02.069Z,16.78
2017-05-17T03:23:14.989Z,16.75
2017-05-17T03:24:27.412Z,16.78
2017-05-17T03:25:40.332Z,16.78
2017-05-17T03:26:53.460Z,16.75
2017-05-17T03:28:06.377Z,16.66
2017-05-17T03:29:18.802Z,16.69
2017-05-17T03:30:31.720Z,16.77
2017-05-17T03:31:44.944Z,16.75
2017-05-17T03:32:57.859Z,16.69
2017-05-17T03:34:10.282Z,16.67
2017-05-17T03:35:23.199Z,16.72
2017-05-17T03:36:36.124Z,16.73
2017-05-17T03:38:03.123Z,16.73
2017-05-17T03:39:16.040Z,16.72
2017-05-17T03:40:28.462Z,16.72
2017-05-17T03:41:41.377Z,16.73
2017-05-17T03:42:54.492Z,16.67
2017-05-17T03:44:07.410Z,16.67
2017-05-17T03:45:20.326Z,16.66
2017-05-17T03:46:32.754Z,16.63
2017-05-17T03:47:45.677Z,16.69
2017-05-17T03:48:58.593Z,16.63
2017-05-17T03:50:11.504Z,16.66
2017-05-17T03:51:23.931Z,16.66
2017-05-17T03:52:36.357Z,16.69
2017-05-17T03:53:49.473Z,16.65
2017-05-17T03:55:02.456Z,16.66
2017-05-17T03:56:15.512Z,16.63
2017-05-17T03:57:28.568Z,16.6
2017-05-17T03:58:41.926Z,16.69
2017-05-17T03:59:54.983Z,16.69
2017-05-17T04:01:08.042Z,16.72
2017-05-17T04:02:21.100Z,16.73
2017-05-17T04:03:34.158Z,16.77
2017-05-17T04:04:47.020Z,16.7
2017-05-17T04:06:00.088Z,16.78
2017-05-17T04:07:13.145Z,16.73
2017-05-17T04:08:26.208Z,16.73
2017-05-17T04:09:39.468Z,16.73
2017-05-17T04:10:52.523Z,16.8
2017-05-17T04:12:05.080Z,16.78
2017-05-17T04:13:17.638Z,16.8
2017-05-17T04:14:30.692Z,16.84
2017-05-17T04:15:43.950Z,16.82
2017-05-17T04:16:57.032Z,16.85
2017-05-17T04:18:10.109Z,16.9
2017-05-17T04:19:23.171Z,16.88
2017-05-17T04:20:36.530Z,16.87
2017-05-17T04:21:49.093Z,17
2017-05-17T04:23:02.158Z,16.96
2017-05-17T04:24:15.222Z,16.98
2017-05-17T04:25:28.279Z,17.02
2017-05-17T04:26:55.353Z,17.02
2017-05-17T04:28:07.875Z,17
2017-05-17T04:29:20.338Z,16.98
2017-05-17T04:30:32.747Z,17.06
2017-05-17T04:31:45.852Z,17.12
2017-05-17T04:32:58.745Z,17.2
2017-05-17T04:34:11.642Z,17.2
2017-05-17T04:35:24.049Z,17.18
2017-05-17T04:36:36.455Z,17.22
2017-05-17T04:37:49.360Z,17.25
2017-05-17T04:39:01.781Z,17.36
2017-05-17T04:40:14.679Z,17.25
2017-05-17T04:41:27.579Z,17.35
2017-05-17T04:42:40.681Z,17.32
2017-05-17T04:43:53.572Z,17.36
2017-05-17T04:45:06.470Z,17.36
2017-05-17T04:46:19.418Z,17.43
2017-05-17T04:47:31.825Z,17.36
2017-05-17T04:48:44.725Z,17.43
2017-05-17T04:49:57.618Z,17.43
2017-05-17T04:51:10.027Z,17.42
2017-05-17T04:52:22.933Z,17.38
2017-05-17T04:53:36.036Z,17.39
2017-05-17T04:54:48.937Z,17.42
2017-05-17T04:56:01.344Z,17.43
2017-05-17T04:57:14.254Z,17.47
2017-05-17T04:58:27.158Z,17.4
2017-05-17T04:59:40.056Z,17.46
2017-05-17T05:00:52.955Z,17.51
2017-05-17T05:02:05.848Z,17.49
2017-05-17T05:03:18.261Z,17.46
2017-05-17T05:04:30.874Z,17.43
2017-05-17T05:05:43.772Z,17.39
2017-05-17T05:06:56.180Z,17.42
2017-05-17T05:08:09.079Z,17.38
2017-05-17T05:09:21.490Z,17.45
2017-05-17T05:10:34.585Z,17.36
2017-05-17T05:11:47.485Z,17.42
2017-05-17T05:13:00.384Z,17.35
2017-05-17T05:14:13.220Z,17.43
2017-05-17T05:15:26.007Z,17.33
2017-05-17T05:16:38.304Z,17.33
2017-05-17T05:17:51.079Z,17.35
2017-05-17T05:19:03.876Z,17.38
2017-05-17T05:20:16.175Z,17.4
2017-05-17T05:21:28.952Z,17.36
2017-05-17T05:22:41.249Z,17.38
2017-05-17T05:23:53.547Z,17.39
2017-05-17T05:25:06.329Z,17.38
2017-05-17T05:26:19.407Z,17.36
2017-05-17T05:27:31.705Z,17.42
2017-05-17T05:28:44.482Z,17.32
2017-05-17T05:29:57.264Z,17.43
2017-05-17T05:31:10.055Z,17.42
2017-05-17T05:32:23.033Z,17.36
2017-05-17T05:33:35.377Z,17.43
2017-05-17T05:34:47.675Z,17.38
2017-05-17T05:36:00.461Z,17.36
2017-05-17T05:37:12.887Z,17.42
2017-05-17T05:38:25.808Z,17.39
2017-05-17T05:39:38.235Z,17.36
2017-05-17T05:40:51.155Z,17.43
2017-05-17T05:42:04.088Z,17.4
2017-05-17T05:43:16.521Z,17.47
2017-05-17T05:44:29.442Z,17.43
2017-05-17T05:45:42.361Z,17.46
2017-05-17T05:46:54.791Z,17.43
2017-05-17T05:48:08.012Z,17.51
2017-05-17T05:49:20.450Z,17.51
2017-05-17T05:50:32.883Z,17.53
2017-05-17T05:51:45.801Z,17.45
2017-05-17T05:52:58.731Z,17.43
2017-05-17T05:54:11.655Z,17.39
2017-05-17T05:55:24.631Z,17.38
2017-05-17T05:56:37.546Z,17.43
2017-05-17T05:57:50.467Z,17.33
2017-05-17T05:59:03.686Z,17.24
2017-05-17T06:00:16.748Z,17.28
2017-05-17T06:01:29.808Z,17.33
2017-05-17T06:02:42.863Z,17.2
2017-05-17T06:03:55.928Z,17.24
2017-05-17T06:05:08.684Z,17.22
2017-05-17T06:06:21.743Z,17.24
2017-05-17T06:07:34.799Z,17.35
2017-05-17T06:08:47.359Z,17.33
2017-05-17T06:10:00.420Z,17.33
2017-05-17T06:11:12.908Z,17.32
2017-05-17T06:12:25.824Z,17.35
2017-05-17T06:13:38.258Z,17.3
2017-05-17T06:14:51.174Z,17.38
2017-05-17T06:16:04.091Z,17.32
2017-05-17T06:17:16.514Z,17.33
2017-05-17T06:18:29.434Z,17.28
2017-05-17T06:19:42.349Z,17.35
2017-05-17T06:20:55.266Z,17.43
2017-05-17T06:22:08.189Z,17.43
2017-05-17T06:23:20.132Z,17.4
2017-05-17T06:24:33.051Z,17.33
2017-05-17T06:25:45.980Z,17.36
2017-05-17T06:26:59.110Z,17.38
2017-05-17T06:28:12.029Z,17.35
2017-05-17T06:29:24.498Z,17.36
2017-05-17T06:30:37.416Z,17.39
2017-05-17T06:31:50.638Z,17.3
2017-05-17T06:33:03.563Z,17.27
2017-05-17T06:34:16.480Z,17.27
2017-05-17T06:35:28.904Z,17.3
2017-05-17T06:36:41.817Z,17.28
2017-05-17T06:37:54.249Z,17.28
2017-05-17T06:39:07.167Z,17.22
2017-05-17T06:40:19.589Z,17.25
2017-05-17T06:41:32.505Z,17.28
2017-05-17T06:42:45.628Z,17.27
2017-05-17T06:43:58.544Z,17.25
2017-05-17T06:45:10.899Z,17.3
2017-05-17T06:46:23.199Z,17.32
2017-05-17T06:47:35.978Z,17.35
2017-05-17T06:48:49.053Z,17.32
2017-05-17T06:50:01.834Z,17.38
2017-05-17T06:51:13.175Z,17.32
2017-05-17T06:52:25.957Z,17.38
2017-05-17T06:53:39.039Z,17.46
2017-05-17T06:54:51.817Z,17.38
2017-05-17T06:56:04.596Z,17.32
2017-05-17T06:57:17.378Z,17.3
2017-05-17T06:58:28.708Z,17.32
2017-05-17T06:59:41.327Z,17.46
2017-05-17T07:00:54.105Z,17.47
2017-05-17T07:02:06.883Z,17.45
2017-05-17T07:03:19.659Z,17.43
2017-05-17T07:04:32.736Z,17.45
2017-05-17T07:05:45.029Z,17.47
2017-05-17T07:06:57.815Z,17.51
2017-05-17T07:08:10.109Z,17.54
2017-05-17T07:09:22.897Z,17.53
2017-05-17T07:10:35.977Z,17.51
2017-05-17T07:11:48.753Z,17.49
2017-05-17T07:13:01.531Z,17.47
2017-05-17T07:14:14.311Z,17.46
2017-05-17T07:15:27.090Z,17.49
2017-05-17T07:16:39.866Z,17.51
2017-05-17T07:17:52.644Z,17.53
2017-05-17T07:19:05.423Z,17.51
2017-05-17T07:20:17.718Z,17.49
2017-05-17T07:21:29.839Z,17.58
2017-05-17T07:22:42.139Z,17.47
2017-05-17T07:23:54.927Z,17.49
2017-05-17T07:25:07.709Z,17.46
2017-05-17T07:26:20.788Z,17.42
2017-05-17T07:27:33.570Z,17.42
2017-05-17T07:28:46.350Z,17.33
2017-05-17T07:29:59.194Z,17.39
2017-05-17T07:31:12.095Z,17.43
2017-05-17T07:32:24.994Z,17.4
2017-05-17T07:33:37.420Z,17.38
2017-05-17T07:34:50.324Z,17.38
2017-05-17T07:36:03.224Z,17.46
2017-05-17T07:37:16.121Z,17.45
2017-05-17T07:38:28.533Z,17.46
2017-05-17T07:39:41.428Z,17.45
2017-05-17T07:40:53.833Z,17.47
2017-05-17T07:42:06.239Z,17.47
2017-05-17T07:43:19.143Z,17.45
2017-05-17T07:44:32.045Z,17.45
2017-05-17T07:45:44.943Z,17.42
2017-05-17T07:46:57.842Z,17.45
2017-05-17T07:48:24.791Z,17.36
2017-05-17T07:49:37.709Z,17.38
2017-05-17T07:50:50.122Z,17.47
2017-05-17T07:52:03.030Z,17.43
2017-05-17T07:53:15.939Z,17.45
2017-05-17T07:54:28.403Z,17.45
2017-05-17T07:55:40.949Z,17.45
2017-05-17T07:56:53.506Z,17.47
2017-05-17T07:58:06.545Z,17.51
2017-05-17T07:59:19.386Z,17.49
2017-05-17T08:00:32.474Z,17.51
2017-05-17T08:01:45.523Z,17.6
2017-05-17T08:02:57.568Z,17.54
2017-05-17T08:04:10.610Z,17.53
2017-05-17T08:05:23.649Z,17.53
2017-05-17T08:06:36.691Z,17.57
2017-05-17T08:07:48.732Z,17.6
2017-05-17T08:09:01.798Z,17.65
2017-05-17T08:10:14.637Z,17.66
2017-05-17T08:11:27.175Z,17.6
2017-05-17T08:12:40.220Z,17.65
2017-05-17T08:13:53.265Z,17.62
2017-05-17T08:15:06.011Z,17.62
2017-05-17T08:16:19.053Z,17.55
2017-05-17T08:17:32.092Z,17.54
2017-05-17T08:18:45.137Z,17.53
2017-05-17T08:19:58.195Z,17.55
2017-05-17T08:21:11.439Z,17.58
2017-05-17T08:22:23.484Z,17.47
2017-05-17T08:23:36.036Z,17.42
2017-05-17T08:24:49.088Z,17.45
2017-05-17T08:26:02.136Z,17.39
2017-05-17T08:27:14.675Z,17.35
2017-05-17T08:28:27.707Z,17.36
2017-05-17T08:29:40.751Z,17.33
2017-05-17T08:30:53.841Z,17.36
2017-05-17T08:32:06.885Z,17.32
2017-05-17T08:33:19.923Z,17.33
2017-05-17T08:34:31.969Z,17.35
2017-05-17T08:35:45.013Z,17.39
2017-05-17T08:36:58.252Z,17.32
2017-05-17T08:38:11.300Z,17.24
2017-05-17T08:39:23.868Z,17.38
2017-05-17T08:40:36.914Z,17.33
2017-05-17T08:41:49.956Z,17.33
2017-05-17T08:43:03.297Z,17.35
2017-05-17T08:44:16.352Z,17.36
2017-05-17T08:45:29.395Z,17.39
2017-05-17T08:46:41.931Z,17.43
2017-05-17T08:47:54.968Z,17.39
2017-05-17T08:49:08.008Z,17.36
2017-05-17T08:50:20.609Z,17.33
2017-05-17T08:51:33.643Z,17.36
2017-05-17T08:52:46.685Z,17.3
2017-05-17T08:53:58.735Z,17.36
2017-05-17T08:55:11.280Z,17.36
2017-05-17T08:56:23.819Z,17.3
2017-05-17T08:57:36.857Z,17.32
2017-05-17T08:58:49.703Z,17.36
2017-05-17T09:00:02.253Z,17.39
2017-05-17T09:01:14.296Z,17.35
2017-05-17T09:02:27.268Z,17.32
2017-05-17T09:03:40.170Z,17.33
2017-05-17T09:04:53.367Z,17.4
2017-05-17T09:06:05.775Z,17.32
2017-05-17T09:07:18.185Z,17.43
2017-05-17T09:08:31.086Z,17.43
2017-05-17T09:09:44.188Z,17.45
2017-05-17T09:10:57.088Z,17.43
2017-05-17T09:12:10.026Z,17.49
2017-05-17T09:13:22.928Z,17.42
2017-05-17T09:14:35.828Z,17.47
2017-05-17T09:15:49.043Z,17.43
2017-05-17T09:17:01.453Z,17.45
2017-05-17T09:18:14.350Z,17.47
2017-05-17T09:19:26.765Z,17.49
2017-05-17T09:20:39.868Z,17.46
2017-05-17T09:21:52.277Z,17.47
2017-05-17T09:23:05.239Z,17.45
2017-05-17T09:24:17.153Z,17.47
2017-05-17T09:25:29.563Z,17.46
2017-05-17T09:26:42.760Z,17.42
2017-05-17T09:27:55.174Z,17.42
2017-05-17T09:29:08.072Z,17.46
2017-05-17T09:30:20.970Z,17.46
2017-05-17T09:31:34.169Z,17.43
2017-05-17T09:32:47.067Z,17.47
2017-05-17T09:33:59.470Z,17.4
2017-05-17T09:35:12.385Z,17.42
2017-05-17T09:36:25.283Z,17.47
2017-05-17T09:37:38.379Z,17.38
2017-05-17T09:38:50.788Z,17.47
2017-05-17T09:40:03.697Z,17.45
2017-05-17T09:41:16.105Z,17.45
2017-05-17T09:42:29.203Z,17.49
2017-05-17T09:43:42.107Z,17.36
2017-05-17T09:44:55.013Z,17.46
2017-05-17T09:46:07.937Z,17.49
2017-05-17T09:47:20.371Z,17.43
2017-05-17T09:48:33.493Z,17.45
2017-05-17T09:49:46.411Z,17.47
2017-05-17T09:50:59.331Z,17.43
2017-05-17T09:52:11.270Z,17.45
2017-05-17T09:53:24.188Z,17.43
2017-05-17T09:54:37.106Z,17.46
2017-05-17T09:55:49.534Z,17.46
2017-05-17T09:57:02.451Z,17.47
2017-05-17T09:58:15.423Z,17.47
2017-05-17T09:59:27.852Z,17.49
2017-05-17T10:00:40.279Z,17.53
2017-05-17T10:01:52.706Z,17.53
2017-05-17T10:03:05.618Z,17.55
2017-05-17T10:04:18.244Z,17.53
2017-05-17T10:05:31.167Z,17.49
2017-05-17T10:06:43.591Z,17.53
2017-05-17T10:07:56.025Z,17.53
2017-05-17T10:09:08.950Z,17.46
2017-05-17T10:10:22.076Z,17.57
2017-05-17T10:11:35.044Z,17.47
2017-05-17T10:12:47.544Z,17.53
2017-05-17T10:14:00.056Z,17.55
2017-05-17T10:15:12.555Z,17.63
2017-05-17T10:16:25.553Z,17.6
2017-05-17T10:17:38.081Z,17.57
2017-05-17T10:18:51.080Z,17.55
2017-05-17T10:20:04.088Z,17.62
2017-05-17T10:21:16.790Z,17.68
2017-05-17T10:22:29.789Z,17.58
2017-05-17T10:23:42.786Z,17.73
2017-05-17T10:24:54.793Z,17.77
2017-05-17T10:26:07.290Z,17.62
2017-05-17T10:27:20.294Z,17.7
2017-05-17T10:28:32.803Z,17.7
2017-05-17T10:29:45.813Z,17.68
2017-05-17T10:30:58.314Z,17.76
2017-05-17T10:32:11.319Z,17.8
2017-05-17T10:33:24.324Z,17.87
2017-05-17T10:34:37.330Z,17.92
2017-05-17T10:35:50.330Z,17.95
2017-05-17T10:37:03.629Z,17.99
2017-05-17T10:38:16.130Z,18.01
2017-05-17T10:39:29.133Z,17.98
2017-05-17T10:40:42.128Z,18.07
2017-05-17T10:41:54.626Z,17.96
2017-05-17T10:43:07.129Z,17.84
2017-05-17T10:44:20.370Z,17.89
2017-05-17T10:45:33.377Z,17.89
2017-05-17T10:46:45.846Z,17.94
2017-05-17T10:47:58.473Z,17.83
2017-05-17T10:49:11.388Z,17.94
2017-05-17T10:50:24.311Z,17.95
2017-05-17T10:51:36.737Z,18.01
2017-05-17T10:52:49.653Z,17.87
2017-05-17T10:54:02.774Z,18.02
2017-05-17T10:55:15.687Z,18.04
2017-05-17T10:56:28.609Z,18.13
2017-05-17T10:57:41.523Z,18.16
2017-05-17T10:58:54.645Z,18.13
2017-05-17T11:00:07.074Z,18.2
2017-05-17T11:01:19.996Z,18.16
2017-05-17T11:02:32.916Z,18.19
2017-05-17T11:03:45.343Z,18.2
2017-05-17T11:04:58.024Z,18.2
2017-05-17T11:06:10.944Z,18.19
2017-05-17T11:07:23.374Z,18.19
2017-05-17T11:08:36.297Z,18.25
2017-05-17T11:09:49.300Z,18.39
2017-05-17T11:11:02.221Z,18.39
2017-05-17T11:12:15.141Z,18.32
2017-05-17T11:13:27.568Z,18.36
2017-05-17T11:14:40.413Z,18.34
2017-05-17T11:16:07.277Z,18.41
2017-05-17T11:17:19.585Z,18.26
2017-05-17T11:18:31.884Z,18.35
2017-05-17T11:19:43.706Z,18.32
2017-05-17T11:20:56.484Z,18.28
2017-05-17T11:22:07.820Z,18.31
2017-05-17T11:23:20.115Z,18.32
2017-05-17T11:24:32.899Z,18.32
2017-05-17T11:25:45.682Z,18.39
2017-05-17T11:26:57.979Z,18.36
2017-05-17T11:28:10.280Z,18.41
2017-05-17T11:29:22.582Z,18.38
2017-05-17T11:30:35.366Z,18.47
2017-05-17T11:31:48.352Z,18.49
2017-05-17T11:33:00.650Z,18.54
2017-05-17T11:34:12.947Z,18.5
2017-05-17T11:35:24.772Z,18.5
2017-05-17T11:36:37.069Z,18.57
2017-05-17T11:37:49.860Z,18.57
2017-05-17T11:39:02.171Z,18.57
2017-05-17T11:40:14.473Z,18.64
2017-05-17T11:41:26.771Z,18.68
2017-05-17T11:42:39.850Z,18.62
2017-05-17T11:43:52.153Z,18.69
2017-05-17T11:45:03.486Z,18.66
2017-05-17T11:46:15.785Z,18.75
2017-05-17T11:47:27.903Z,18.82
2017-05-17T11:48:39.726Z,18.91
2017-05-17T11:49:52.510Z,18.86
2017-05-17T11:51:05.011Z,18.86
2017-05-17T11:52:17.317Z,18.9
2017-05-17T11:53:30.107Z,18.79
2017-05-17T11:54:42.888Z,18.82
2017-05-17T11:55:54.706Z,18.79
2017-05-17T11:57:07.003Z,18.87
2017-05-17T11:58:19.307Z,18.84
2017-05-17T11:59:46.246Z,18.91
2017-05-17T12:00:59.167Z,19.01
2017-05-17T12:02:12.083Z,18.91
2017-05-17T12:03:24.511Z,18.89
2017-05-17T12:04:37.142Z,18.89
2017-05-17T12:05:49.570Z,18.94
2017-05-17T12:07:02.490Z,18.9
2017-05-17T12:08:15.410Z,18.9
2017-05-17T12:09:42.467Z,18.84
2017-05-17T12:10:54.406Z,18.76
2017-05-17T12:12:07.328Z,18.84
2017-05-17T12:13:19.761Z,18.93
2017-05-17T12:14:32.209Z,18.72
2017-05-17T12:15:44.636Z,18.75
2017-05-17T12:16:57.093Z,18.75
2017-05-17T12:18:10.025Z,18.75
2017-05-17T12:19:22.945Z,18.79
2017-05-17T12:20:36.170Z,18.83
2017-05-17T12:21:48.606Z,18.78
2017-05-17T12:23:01.038Z,18.78
2017-05-17T12:24:13.464Z,18.74
2017-05-17T12:25:26.382Z,18.79
2017-05-17T12:26:39.307Z,18.86
2017-05-17T12:27:51.244Z,18.91
2017-05-17T12:29:03.673Z,18.93
2017-05-17T12:30:16.643Z,18.91
2017-05-17T12:31:29.450Z,18.96
2017-05-17T12:32:42.459Z,19.02
2017-05-17T12:33:54.467Z,18.93
2017-05-17T12:35:06.973Z,19.01
2017-05-17T12:36:19.781Z,19.13
2017-05-17T12:37:32.286Z,19.02
2017-05-17T12:38:45.295Z,19.1
2017-05-17T12:39:57.853Z,19.13
2017-05-17T12:41:09.379Z,19.07
2017-05-17T12:42:22.380Z,19.07
2017-05-17T12:43:34.886Z,19.12
2017-05-17T12:44:47.886Z,19.05
2017-05-17T12:46:00.886Z,19.13
2017-05-17T12:47:13.586Z,19.17
2017-05-17T12:48:26.098Z,19.15
2017-05-17T12:49:39.108Z,19.1
2017-05-17T12:50:51.114Z,18.96
2017-05-17T12:52:04.110Z,19.09
2017-05-17T12:53:17.311Z,19.15
2017-05-17T12:54:30.311Z,19.23
2017-05-17T12:55:42.829Z,19.25
2017-05-17T12:56:55.832Z,19.27
2017-05-17T12:58:08.831Z,19.21
2017-05-17T12:59:21.840Z,19.24
2017-05-17T13:00:34.840Z,19.23
2017-05-17T13:01:47.835Z,19.12
2017-05-17T13:03:00.340Z,19.23
2017-05-17T13:04:12.845Z,19.23
2017-05-17T13:05:25.848Z,19.32
2017-05-17T13:06:38.846Z,19.31
2017-05-17T13:07:51.351Z,19.38
2017-05-17T13:09:04.668Z,19.43
2017-05-17T13:10:17.169Z,19.46
2017-05-17T13:11:30.167Z,19.47
2017-05-17T13:12:43.170Z,19.52
2017-05-17T13:13:55.675Z,19.62
2017-05-17T13:15:08.178Z,19.65
2017-05-17T13:16:21.177Z,19.67
2017-05-17T13:17:33.685Z,19.6
2017-05-17T13:18:46.195Z,19.65
2017-05-17T13:19:59.500Z,19.72
2017-05-17T13:21:12.501Z,19.67
2017-05-17T13:22:25.006Z,19.65
2017-05-17T13:23:38.006Z,19.64
2017-05-17T13:24:51.008Z,19.62
2017-05-17T13:26:03.510Z,19.72
2017-05-17T13:27:16.013Z,19.8
2017-05-17T13:28:29.011Z,19.65
2017-05-17T13:29:42.001Z,19.8
2017-05-17T13:30:55.288Z,19.83
2017-05-17T13:32:08.278Z,19.86
2017-05-17T13:33:20.765Z,19.89
2017-05-17T13:34:32.758Z,19.98
2017-05-17T13:35:45.741Z,20.01
2017-05-17T13:36:58.426Z,20.05
2017-05-17T13:38:10.882Z,19.98
2017-05-17T13:39:23.294Z,20.05
2017-05-17T13:40:36.202Z,19.87
2017-05-17T13:41:48.914Z,20
2017-05-17T13:43:02.417Z,20.1
2017-05-17T13:44:14.832Z,20.1
2017-05-17T13:45:27.740Z,20.15
2017-05-17T13:46:40.640Z,20.33
2017-05-17T13:47:53.542Z,20.23
2017-05-17T13:49:06.447Z,20.23
2017-05-17T13:50:18.900Z,20.34
2017-05-17T13:51:31.823Z,20.37
2017-05-17T13:52:44.924Z,20.35
2017-05-17T13:53:57.897Z,20.42
2017-05-17T13:55:10.805Z,20.41
2017-05-17T13:56:23.217Z,20.48
2017-05-17T13:57:36.119Z,20.58
2017-05-17T13:58:49.028Z,20.6
2017-05-17T14:00:01.945Z,20.64
2017-05-17T14:01:14.356Z,20.66
2017-05-17T14:02:26.277Z,20.66
2017-05-17T14:03:38.689Z,20.76
2017-05-17T14:04:51.597Z,20.82
2017-05-17T14:06:04.506Z,20.81
2017-05-17T14:07:17.411Z,20.61
2017-05-17T14:08:30.325Z,20.61
2017-05-17T14:09:43.428Z,20.57
2017-05-17T14:10:56.328Z,20.63
2017-05-17T14:12:09.282Z,20.73
2017-05-17T14:13:21.700Z,20.79
2017-05-17T14:14:34.612Z,20.82
2017-05-17T14:15:47.533Z,20.82
2017-05-17T14:17:00.448Z,20.98
2017-05-17T14:18:13.369Z,21
2017-05-17T14:19:26.290Z,20.93
2017-05-17T14:20:38.920Z,20.9
2017-05-17T14:21:51.348Z,20.87
2017-05-17T14:23:03.291Z,20.98
2017-05-17T14:24:15.732Z,21.03
2017-05-17T14:25:28.163Z,21.08
2017-05-17T14:26:40.588Z,21.06
2017-05-17T14:27:53.513Z,21.31
2017-05-17T14:29:06.448Z,21.33
2017-05-17T14:30:19.369Z,21.31
2017-05-17T14:31:31.310Z,21.34
2017-05-17T14:32:43.748Z,21.45
2017-05-17T14:33:56.179Z,21.4
2017-05-17T14:35:08.608Z,21.46
2017-05-17T14:36:21.529Z,21.38
2017-05-17T14:37:34.449Z,21.38
2017-05-17T14:38:46.887Z,21.46
2017-05-17T14:39:59.812Z,21.45
2017-05-17T14:41:12.728Z,21.37
2017-05-17T14:42:25.646Z,21.43
2017-05-17T14:43:38.764Z,21.42
2017-05-17T14:44:51.209Z,21.33
2017-05-17T14:46:04.138Z,21.43
2017-05-17T14:47:16.078Z,21.51
2017-05-17T14:48:28.514Z,21.46
2017-05-17T14:49:41.441Z,21.43
2017-05-17T14:50:54.360Z,21.55
2017-05-17T14:52:07.291Z,21.56
2017-05-17T14:53:20.216Z,21.66
2017-05-17T14:54:32.158Z,21.59
2017-05-17T14:55:44.595Z,21.52
2017-05-17T14:56:57.520Z,21.55
2017-05-17T14:58:09.953Z,21.46
2017-05-17T14:59:22.862Z,21.49
2017-05-17T15:00:35.767Z,21.36
2017-05-17T15:01:48.669Z,21.31
2017-05-17T15:03:01.083Z,21.27
2017-05-17T15:04:13.983Z,21.31
2017-05-17T15:05:26.881Z,21.37
2017-05-17T15:06:39.286Z,21.34
2017-05-17T15:07:52.188Z,21.33
2017-05-17T15:09:05.092Z,21.34
2017-05-17T15:10:17.851Z,21.38
2017-05-17T15:11:30.755Z,21.4
2017-05-17T15:12:43.658Z,21.43
2017-05-17T15:13:56.570Z,21.43
2017-05-17T15:15:08.976Z,21.58
2017-05-17T15:16:21.391Z,21.64
2017-05-17T15:17:33.811Z,21.63
2017-05-17T15:18:46.716Z,21.66
2017-05-17T15:19:59.133Z,21.68
2017-05-17T15:21:11.549Z,21.64
2017-05-17T15:22:24.017Z,21.67
2017-05-17T15:23:36.920Z,21.66
2017-05-17T15:24:49.829Z,21.66
2017-05-17T15:26:02.735Z,21.66
2017-05-17T15:27:14.675Z,21.75
2017-05-17T15:28:27.574Z,21.75
2017-05-17T15:29:39.993Z,21.7
2017-05-17T15:30:52.404Z,21.61
2017-05-17T15:32:05.506Z,21.66
2017-05-17T15:33:17.427Z,21.68
2017-05-17T15:34:30.329Z,21.75
2017-05-17T15:35:43.286Z,21.77
2017-05-17T15:36:56.191Z,21.75
2017-05-17T15:38:09.103Z,21.83
2017-05-17T15:39:22.012Z,21.82
2017-05-17T15:40:34.919Z,21.89
2017-05-17T15:41:47.822Z,22.04
2017-05-17T15:43:00.925Z,22.02